Fairmont, West Virginia
Current Conditions -  °F | °C
As of 1:53 PM on Monday 20 Oct 2014 (Local Time) from KCKB Reporting Station
Broken Clouds Broken Clouds  
Wind Chill: 56°   Ceiling: 11000
Heat Index: 56°   Visibility: 10mi
Dew Point: 43°   Wind: 12mph
Humidity: 62%   Direction: 210°SSW
Pressure: 29.96"   Gusts: NA
Location:  39.48°N, 80.15°W
Report Text: KCKB 201753Z 21010KT 10SM BKN110 13/06 A2996 RMK AO2 SLP141 T01330061 10133 20028 58029
Loading
Personal Weather Stations






























Interactive Weather Map
Tropical Storm Tracking
New forecast layout! Learn more

10-Day Weather Forecast

Advertisements
Track Severe Weather on mobile